Arnegard, ND

10:45 PM CDT on March 28, 2015 (GMT -0500)
Watford City | | Change Station
CLOSE
Current Station
Airport
Location: Watford City,
Elevation: 2110 ft
Nearby Weather Stations
Active Advisory: Wind Advisory Active Notice: Record Report, Public Information Statement

Elev 2110 ft 47.80 °N, 103.26 °W | Updated 10 minutes ago

Rain
Rain
48 °F
Feels Like 48 °F
N
22
Wind Variable Wind from West
Gusts 29 mph

Today
High -- | Low -- °F
--% Chance of Precip.
Yesterday
High -- | Low -- °F
Precip. -- in
7:40 AM 8:17 PM
Waxing Gibbous, 68% visible
Pressure 29.62 in
Visibility 10.0 miles
Clouds Few 2400 ft
Scattered Clouds 3700 ft
Mostly Cloudy 4400 ft
Dew Point 39 °F
Humidity 71%
Rainfall 0.00 in
Snow Depth Not available.
UV 0 out of 12
Pollen 4.70 out of 12
Air Quality Not available.
Flu Activity Not available.
METAR KS25 290335Z AUTO 27019G25KT 10SM FEW024 SCT037 BKN044 09/04 A2962 RMK AO2

More Conditions Fewer Conditions

Pressure 29.62 in
Visibility 10.0 miles
Clouds Few 2400 ft
Scattered Clouds 3700 ft
Mostly Cloudy 4400 ft
Dew Point 39 °F
Humidity 71%
Rainfall 0.00 in
Snow Depth Not available.
UV 0 out of 12
Pollen 4.70 out of 12
Air Quality Not available.
Flu Activity Not available.
METAR KS25 290335Z AUTO 27019G25KT 10SM FEW024 SCT037 BKN044 09/04 A2962 RMK AO2

More Conditions Fewer Conditions

10-Day Weather Forecast

Almanac

Astronomy

Mar. 28, 2015 Rise Set
Actual Time
Civil Twilight
Nautical Twilight
Astronomical Twilight
Moon
Length of Visible Light
Length of Day
Tomorrow will be .
, % of the Moon is Illuminated

Today's Extremes

State Highs State Lows

Community

WunderPhotos

Upload Photos

1,809,177 photos uploaded!

WunderBlogs® & News

Nearby

Air Quality

  Air Quality AQ Index Pollutant
Not available.

Snow Depth

Station Depth Elevation

Earthquake Activity

City Distance Mag. Time & Date
Minimum magnitude displayed is 2.5.

Coastal Water Temperatures

Place Temperature

Stations

Nearby Weather Stations

Station Location Temp. Windchill Dew Point Humidity Wind Precip. Elev Updated Type
                   
Wind Advisory
Statement as of 8:30 PM CDT on March 28, 2015

... Wind Advisory remains in effect until 7 am CDT Sunday...

... Strong and gusty winds developing from west to east late this
afternoon through early Sunday morning...

* timing... tonight through early Sunday morning.

* Winds... northwest wind gusts to 50 mph.

* Impacts... difficult driving conditions for high profile
vehicles. Difficult outdoor working conditions.

Precautionary/preparedness actions...

A Wind Advisory means that sustained winds of 30 to 40 mph... and
or gusts under 58 mph... are expected. Winds this strong can make
driving difficult... especially for high profile vehicles. Use
extra caution.